Time;durP1;ratioP1;P1;durP2;ratioP2;P2;SDS_P1;SDS_P2;PMS_P1;PMS_P2;Temp;Humidity;BMP_temperature;BMP_pressure;BME280_temperature;BME280_humidity;BME280_pressure;Samples;Min_cycle;Max_cycle;Signal;HPM_P1;HPM_P2
2021/07/06 00:01:22;;;;;;;;;3.50;3.00;;;;;22.99;55.80;99227.25;5036133;28;45601;-77
2021/07/06 00:03:48;;;;;;;;;2.75;2.75;;;;;22.99;55.61;99222.81;5035444;28;45400;-77
2021/07/06 00:06:13;;;;;;;;;3.50;3.00;;;;;22.99;56.27;99209.50;5036438;28;45339;-74
2021/07/06 00:08:38;;;;;;;;;3.75;3.00;;;;;23.01;56.27;99201.34;5015105;28;45747;-77
2021/07/06 00:11:04;;;;;;;;;5.00;4.75;;;;;22.99;55.79;99220.13;5015215;28;45590;-75
2021/07/06 00:13:29;;;;;;;;;2.25;2.25;;;;;23.01;56.30;99231.47;5016341;28;46080;-77
2021/07/06 00:15:55;;;;;;;;;2.25;2.25;;;;;22.99;56.14;99225.47;5032497;28;45445;-75
2021/07/06 00:18:20;;;;;;;;;2.50;2.50;;;;;23.03;56.42;99223.34;5031743;28;45396;-77
2021/07/06 00:20:46;;;;;;;;;3.00;2.00;;;;;23.00;55.90;99205.84;5035126;28;46106;-76
2021/07/06 00:23:11;;;;;;;;;1.50;1.50;;;;;23.01;55.90;99204.84;5017829;28;45837;-76
2021/07/06 00:25:37;;;;;;;;;4.00;2.00;;;;;23.04;55.92;99201.03;5050990;28;45429;-77
2021/07/06 00:28:02;;;;;;;;;1.00;1.00;;;;;23.06;55.97;99201.72;5036261;28;45517;-77
2021/07/06 00:30:28;;;;;;;;;2.00;2.00;;;;;23.06;56.30;99191.06;5034596;28;46211;-75
2021/07/06 00:32:53;;;;;;;;;2.75;2.00;;;;;23.06;56.02;99191.06;5035527;28;45423;-76
2021/07/06 00:35:19;;;;;;;;;3.00;1.00;;;;;23.07;56.06;99208.72;5036181;28;45489;-76
2021/07/06 00:37:45;;;;;;;;;1.25;1.25;;;;;23.07;56.13;99198.06;5037337;28;45374;-75
2021/07/06 00:40:11;;;;;;;;;3.00;1.00;;;;;23.06;56.06;99194.56;5034267;28;46934;-76
2021/07/06 00:42:41;;;;;;;;;1.00;1.00;;;;;23.05;55.81;99186.75;5035515;28;45367;-77
2021/07/06 00:45:07;;;;;;;;;1.00;1.00;;;;;23.06;56.18;99180.41;5035447;28;45403;-77
2021/07/06 00:47:35;;;;;;;;;1.00;0.50;;;;;23.05;55.95;99178.75;5036771;28;45572;-77
2021/07/06 00:50:01;;;;;;;;;2.00;1.00;;;;;23.07;56.17;99200.75;5036996;28;45575;-75
2021/07/06 00:52:27;;;;;;;;;2.00;1.00;;;;;23.05;56.07;99202.72;5038927;28;45299;-78
2021/07/06 00:54:52;;;;;;;;;0.75;0.00;;;;;23.05;55.48;99203.56;5037401;28;45422;-78
2021/07/06 00:57:28;;;;;;;;;2.00;2.00;;;;;23.04;55.73;99185.06;5039884;28;45414;-78
2021/07/06 00:59:56;;;;;;;;;1.00;1.00;;;;;23.05;55.85;99189.41;5034574;28;47560;-77
2021/07/06 01:02:21;;;;;;;;;1.75;1.50;;;;;23.03;55.38;99191.38;5035661;28;45427;-77
2021/07/06 01:04:47;;;;;;;;;0.00;0.00;;;;;23.03;55.90;99200.22;5034998;28;45773;-76
2021/07/06 01:07:12;;;;;;;;;1.00;1.00;;;;;23.03;55.62;99191.38;5035733;28;45272;-78
2021/07/06 01:09:38;;;;;;;;;2.50;1.25;;;;;23.03;55.52;99199.38;5034248;28;46121;-76
2021/07/06 01:12:03;;;;;;;;;1.00;1.00;;;;;23.02;55.41;99206.53;5017562;28;45446;-77
2021/07/06 01:14:29;;;;;;;;;0.75;0.75;;;;;23.02;55.66;99203.03;5035674;28;45537;-77
2021/07/06 01:16:54;;;;;;;;;1.00;1.00;;;;;23.03;55.76;99191.38;5033825;28;45498;-76
2021/07/06 01:19:20;;;;;;;;;2.00;1.00;;;;;23.01;55.05;99202.19;5033831;28;46883;-75
2021/07/06 01:21:45;;;;;;;;;0.75;0.75;;;;;23.01;55.15;99210.19;5033734;28;45556;-76
2021/07/06 01:24:11;;;;;;;;;1.75;1.75;;;;;23.01;55.26;99222.66;5032448;28;45466;-74
2021/07/06 01:26:36;;;;;;;;;1.00;0.00;;;;;22.99;55.68;99228.13;5034585;28;45327;-76
2021/07/06 01:29:02;;;;;;;;;1.00;1.00;;;;;22.99;55.59;99225.47;5016769;28;45862;-74
2021/07/06 01:31:27;;;;;;;;;0.00;0.00;;;;;22.99;55.12;99224.59;5034298;28;45359;-76
2021/07/06 01:33:56;;;;;;;;;1.00;1.00;;;;;22.98;55.45;99223.75;5032842;28;45419;-76
2021/07/06 01:36:22;;;;;;;;;1.00;0.25;;;;;22.97;55.42;99235.41;5016769;28;45673;-76
2021/07/06 01:38:48;;;;;;;;;0.00;0.00;;;;;22.97;55.30;99231.91;5032796;28;46458;-77
2021/07/06 01:41:13;;;;;;;;;0.00;0.00;;;;;22.95;54.88;99217.91;5016092;28;54505;-76
2021/07/06 01:43:39;;;;;;;;;0.00;0.00;;;;;22.94;55.27;99217.06;5032986;28;45691;-76
2021/07/06 01:46:04;;;;;;;;;0.00;0.00;;;;;22.95;55.18;99221.41;5032717;28;45557;-76
2021/07/06 01:48:30;;;;;;;;;0.00;0.00;;;;;22.94;55.02;99222.41;5033587;28;52648;-75
2021/07/06 01:50:55;;;;;;;;;0.00;0.00;;;;;22.93;54.94;99222.53;5035603;28;45453;-76
2021/07/06 01:53:23;;;;;;;;;0.00;0.00;;;;;22.93;54.83;99233.19;5034579;28;45481;-77
2021/07/06 01:55:50;;;;;;;;;0.00;0.00;;;;;22.91;54.78;99229.84;5036066;28;45346;-76
2021/07/06 01:58:16;;;;;;;;;1.00;1.00;;;;;22.88;55.18;99227.50;5033329;28;48238;-75
2021/07/06 02:00:49;;;;;;;;;2.00;0.00;;;;;22.89;54.70;99247.81;5033651;28;45602;-74
2021/07/06 02:03:15;;;;;;;;;0.00;0.00;;;;;22.86;55.02;99254.25;5034147;28;45363;-74
2021/07/06 02:05:42;;;;;;;;;0.00;0.00;;;;;22.86;54.57;99272.91;5034183;28;45466;-74
2021/07/06 02:08:11;;;;;;;;;0.00;0.00;;;;;22.85;54.99;99264.06;5033308;28;46095;-75
2021/07/06 02:10:36;;;;;;;;;0.00;0.00;;;;;22.83;54.67;99268.72;5012528;28;45266;-75
2021/07/06 02:13:02;;;;;;;;;1.00;0.00;;;;;22.81;54.53;99269.81;5029683;28;45506;-76
2021/07/06 02:15:28;;;;;;;;;0.00;0.00;;;;;22.80;54.22;99278.78;5012746;28;45536;-75
2021/07/06 02:17:54;;;;;;;;;0.00;0.00;;;;;22.78;54.17;99286.94;5012886;28;46153;-75
2021/07/06 02:20:20;;;;;;;;;0.75;0.00;;;;;22.76;54.54;99296.84;5009516;28;45432;-77
2021/07/06 02:22:46;;;;;;;;;0.00;0.00;;;;;22.74;54.64;99285.53;5036770;28;45347;-76
2021/07/06 02:25:13;;;;;;;;;1.00;0.00;;;;;22.72;54.15;99303.47;5036132;28;45611;-77
2021/07/06 02:27:38;;;;;;;;;0.00;0.00;;;;;22.72;54.42;99313.28;5036701;28;46401;-77
2021/07/06 02:30:09;;;;;;;;;0.00;0.00;;;;;22.70;54.17;99310.75;5034914;28;45477;-77
2021/07/06 02:32:34;;;;;;;;;0.00;0.00;;;;;22.69;53.99;99329.53;5036464;28;45354;-75
2021/07/06 02:35:00;;;;;;;;;0.00;0.00;;;;;22.67;53.87;99321.69;5036638;28;45335;-76
2021/07/06 02:37:25;;;;;;;;;0.00;0.00;;;;;22.65;54.27;99321.00;5036026;28;60250;-74
2021/07/06 02:39:51;;;;;;;;;0.00;0.00;;;;;22.64;54.04;99316.69;5033774;28;45424;-75
2021/07/06 02:42:16;;;;;;;;;0.00;0.00;;;;;22.61;54.24;99309.00;5033852;28;45461;-76
2021/07/06 02:44:42;;;;;;;;;0.00;0.00;;;;;22.60;53.74;99311.78;5034016;28;45515;-76
2021/07/06 02:47:08;;;;;;;;;0.00;0.00;;;;;22.57;53.91;99304.94;5033213;28;45574;-75
2021/07/06 02:49:33;;;;;;;;;0.00;0.00;;;;;22.54;53.55;99297.22;5034468;28;45406;-76
2021/07/06 02:51:58;;;;;;;;;2.00;0.00;;;;;22.53;54.00;99308.84;5035066;28;49050;-77
2021/07/06 02:54:24;;;;;;;;;0.00;0.00;;;;;22.51;54.13;99310.81;5053788;28;45630;-76
2021/07/06 02:56:49;;;;;;;;;0.00;0.00;;;;;22.49;54.00;99334.09;5019150;28;45776;-75
2021/07/06 02:59:15;;;;;;;;;1.25;1.00;;;;;22.46;53.90;99319.25;5019666;28;45567;-75
2021/07/06 03:01:40;;;;;;;;;0.00;0.00;;;;;22.45;54.07;99306.09;5035382;28;45398;-75
2021/07/06 03:04:06;;;;;;;;;0.00;0.00;;;;;22.41;53.50;99310.03;5037502;28;45458;-75
2021/07/06 03:06:31;;;;;;;;;0.00;0.00;;;;;22.40;53.56;99313.69;5035059;28;46116;-74
2021/07/06 03:08:58;;;;;;;;;0.00;0.00;;;;;22.39;53.89;99327.97;5036147;28;45200;-75
2021/07/06 03:11:23;;;;;;;;;0.00;0.00;;;;;22.36;54.12;99326.44;5035605;28;45665;-75
2021/07/06 03:13:49;;;;;;;;;1.00;0.50;;;;;22.34;53.96;99333.72;5036469;28;45194;-75
2021/07/06 03:16:14;;;;;;;;;1.25;0.00;;;;;22.34;54.06;99325.75;5036992;28;45388;-75
2021/07/06 03:18:39;;;;;;;;;0.00;0.00;;;;;22.32;54.02;99330.34;5019184;28;45391;-76
2021/07/06 03:21:05;;;;;;;;;0.00;0.00;;;;;22.30;53.97;99318.16;5037060;28;45581;-76
2021/07/06 03:23:30;;;;;;;;;0.00;0.00;;;;;22.29;54.01;99316.50;5036184;28;45593;-77
2021/07/06 03:25:56;;;;;;;;;1.00;1.00;;;;;22.25;53.71;99314.13;5032181;28;47985;-76
2021/07/06 03:28:21;;;;;;;;;1.00;0.00;;;;;22.24;54.19;99309.78;5025021;28;56849;-77
2021/07/06 03:30:46;;;;;;;;;0.00;0.00;;;;;22.23;54.20;99308.09;5018335;28;45557;-78
2021/07/06 03:33:12;;;;;;;;;0.75;0.75;;;;;22.20;53.77;99304.91;5053042;28;45480;-77
2021/07/06 03:35:38;;;;;;;;;0.00;0.00;;;;;22.18;53.92;99304.22;5032500;28;47245;-78
2021/07/06 03:38:04;;;;;;;;;1.00;1.00;;;;;22.15;54.10;99305.34;5036802;28;45501;-76
2021/07/06 03:40:30;;;;;;;;;2.00;1.00;;;;;22.13;54.00;99301.16;5035764;28;45476;-75
2021/07/06 03:42:55;;;;;;;;;1.00;1.00;;;;;22.12;53.97;99305.63;5036157;28;45487;-75
2021/07/06 03:45:21;;;;;;;;;1.00;1.00;;;;;22.09;53.74;99295.25;5034700;28;47904;-76
2021/07/06 03:47:47;;;;;;;;;0.50;0.50;;;;;22.08;53.62;99295.38;5018945;28;45427;-75
2021/07/06 03:50:20;;;;;;;;;0.00;0.00;;;;;22.04;53.91;99297.50;5018746;28;45349;-75
2021/07/06 03:52:46;;;;;;;;;0.50;0.50;;;;;22.03;53.80;99311.75;5020195;28;45463;-76
2021/07/06 03:55:12;;;;;;;;;3.00;0.00;;;;;22.00;53.62;99311.19;5036020;28;45459;-76
2021/07/06 03:57:38;;;;;;;;;0.00;0.00;;;;;21.98;53.54;99321.13;5035857;28;45453;-76
2021/07/06 04:00:08;;;;;;;;;1.25;0.00;;;;;21.92;53.30;99309.25;5038178;28;45224;-75
2021/07/06 04:02:33;;;;;;;;;0.00;0.00;;;;;21.92;53.33;99319.88;5038271;28;45556;-76
2021/07/06 04:04:59;;;;;;;;;0.00;0.00;;;;;21.89;53.74;99318.31;5039778;28;45486;-76
2021/07/06 04:07:24;;;;;;;;;0.00;0.00;;;;;21.88;53.19;99324.63;5035551;28;45517;-76
2021/07/06 04:09:50;;;;;;;;;0.00;0.00;;;;;21.86;53.61;99337.22;5035833;28;45404;-77
2021/07/06 04:12:16;;;;;;;;;0.00;0.00;;;;;21.83;53.39;99326.03;5035411;28;45455;-76
2021/07/06 04:14:41;;;;;;;;;1.25;1.00;;;;;21.81;53.27;99328.00;5036644;28;45459;-77
2021/07/06 04:17:07;;;;;;;;;0.00;0.00;;;;;21.77;53.26;99335.41;5012557;28;45511;-77
2021/07/06 04:19:32;;;;;;;;;2.00;1.00;;;;;21.74;52.91;99343.66;5016212;28;45453;-78
2021/07/06 04:21:58;;;;;;;;;0.75;0.75;;;;;21.71;52.85;99343.94;5014843;28;45588;-76
2021/07/06 04:24:23;;;;;;;;;1.00;1.00;;;;;21.67;53.07;99342.53;5015115;28;47075;-77
2021/07/06 04:26:49;;;;;;;;;0.00;0.00;;;;;21.64;52.70;99356.94;5014011;28;50135;-75
2021/07/06 04:29:14;;;;;;;;;1.50;0.25;;;;;21.62;52.85;99363.38;5026573;28;45851;-76
2021/07/06 04:31:40;;;;;;;;;1.50;0.00;;;;;21.58;52.84;99360.16;5036024;28;45323;-76
2021/07/06 04:34:05;;;;;;;;;1.00;1.00;;;;;21.55;52.64;99354.28;5036304;28;46097;-75
2021/07/06 04:36:31;;;;;;;;;0.00;0.00;;;;;21.51;52.71;99355.53;5021343;28;45472;-77
2021/07/06 04:38:56;;;;;;;;;2.75;1.00;;;;;21.50;52.52;99354.69;5036406;28;45686;-78
2021/07/06 04:41:22;;;;;;;;;1.00;1.00;;;;;21.46;52.57;99361.22;5037928;28;45485;-77
2021/07/06 04:43:47;;;;;;;;;0.50;0.50;;;;;21.45;52.60;99366.69;5020284;28;45502;-75
2021/07/06 04:46:13;;;;;;;;;2.00;0.75;;;;;21.40;52.67;99360.94;5034290;28;45735;-79
2021/07/06 04:48:38;;;;;;;;;1.00;1.00;;;;;21.41;52.60;99378.56;5035898;28;50624;-75
2021/07/06 04:51:09;;;;;;;;;0.00;0.00;;;;;21.38;52.35;99374.38;5033941;28;45489;-75
2021/07/06 04:53:35;;;;;;;;;1.00;1.00;;;;;21.35;52.56;99378.13;5034102;28;46201;-75
2021/07/06 04:56:01;;;;;;;;;1.00;1.00;;;;;21.33;52.22;99380.09;5033055;28;45639;-76
2021/07/06 04:58:28;;;;;;;;;1.50;1.00;;;;;21.31;52.34;99379.41;5034643;28;45358;-75
2021/07/06 05:00:53;;;;;;;;;1.25;1.25;;;;;21.29;52.13;99376.03;5000474;28;45616;-74
2021/07/06 05:03:18;;;;;;;;;2.25;1.00;;;;;21.27;52.43;99385.13;5036256;28;45498;-75
2021/07/06 05:05:44;;;;;;;;;1.75;1.00;;;;;21.24;52.30;99380.06;5033542;28;45852;-77
2021/07/06 05:08:10;;;;;;;;;0.50;0.50;;;;;21.23;52.33;99389.78;5034313;28;45501;-80
2021/07/06 05:10:35;;;;;;;;;2.50;1.00;;;;;21.21;51.90;99388.25;5017801;28;45483;-77
2021/07/06 05:13:01;;;;;;;;;2.00;2.00;;;;;21.14;51.78;99397.75;5032830;28;46543;-74
2021/07/06 05:15:26;;;;;;;;;2.00;0.00;;;;;21.05;51.42;99392.28;5025166;28;45324;-73
2021/07/06 05:17:52;;;;;;;;;0.00;0.00;;;;;20.94;51.43;99389.69;5030583;28;45395;-77
2021/07/06 05:20:17;;;;;;;;;1.00;1.00;;;;;20.84;51.47;99380.88;5041098;28;45329;-81
2021/07/06 05:22:43;;;;;;;;;2.00;2.00;;;;;20.75;51.36;99382.47;5036170;28;59759;-79
2021/07/06 05:25:09;;;;;;;;;3.00;1.25;;;;;20.66;51.64;99387.75;5038271;28;45414;-79
2021/07/06 05:27:35;;;;;;;;;3.00;0.75;;;;;20.60;51.43;99398.84;5042863;28;45709;-78
2021/07/06 05:30:00;;;;;;;;;1.00;1.00;;;;;20.51;50.64;99394.34;5040323;28;45370;-84
2021/07/06 05:32:25;;;;;;;;;2.50;2.00;;;;;20.40;50.97;99409.38;5040822;28;57917;-84
2021/07/06 05:34:52;;;;;;;;;1.25;0.00;;;;;20.33;50.97;99418.75;5024330;28;46160;-83
2021/07/06 05:37:17;;;;;;;;;1.00;1.00;;;;;20.24;50.45;99411.59;5043045;28;45399;-78
2021/07/06 05:39:44;;;;;;;;;2.75;1.25;;;;;20.13;50.78;99415.13;5043709;28;45628;-83
2021/07/06 05:42:09;;;;;;;;;1.75;1.75;;;;;20.01;50.56;99421.44;5022773;28;47398;-80
2021/07/06 05:44:35;;;;;;;;;2.00;2.00;;;;;19.89;51.00;99418.94;5037783;28;53335;-75
2021/07/06 05:47:00;;;;;;;;;2.75;2.00;;;;;19.81;50.50;99411.63;5020766;28;45460;-78
2021/07/06 05:49:26;;;;;;;;;1.00;1.00;;;;;19.74;50.66;99415.75;5038930;28;45455;-78
2021/07/06 05:51:52;;;;;;;;;2.75;1.75;;;;;19.69;51.07;99424.06;5052286;28;47917;-74
2021/07/06 05:54:17;;;;;;;;;1.00;0.00;;;;;19.66;51.32;99418.16;5036094;28;45395;-74
2021/07/06 05:56:43;;;;;;;;;2.75;1.00;;;;;19.63;50.87;99424.56;5035555;28;45292;-72
2021/07/06 05:59:08;;;;;;;;;1.25;1.00;;;;;19.58;51.16;99429.38;5050846;28;45410;-80
2021/07/06 06:01:34;;;;;;;;;1.00;1.00;;;;;19.56;50.80;99435.78;5047462;28;51778;-81
2021/07/06 06:04:00;;;;;;;;;1.00;1.00;;;;;19.57;50.95;99437.47;5034765;28;45477;-78
2021/07/06 06:06:26;;;;;;;;;0.25;0.25;;;;;19.55;51.47;99432.28;5030784;28;45423;-80
2021/07/06 06:08:52;;;;;;;;;1.00;1.00;;;;;19.58;51.40;99447.09;5014762;28;45905;-71
2021/07/06 06:11:18;;;;;;;;;1.50;1.50;;;;;19.60;51.50;99445.16;5031150;28;46245;-85
2021/07/06 06:13:43;;;;;;;;;1.50;1.50;;;;;19.61;51.12;99441.53;5036345;28;45316;-79
2021/07/06 06:16:09;;;;;;;;;2.00;0.50;;;;;19.62;51.70;99433.47;5035031;28;45442;-85
2021/07/06 06:18:35;;;;;;;;;3.25;3.00;;;;;19.62;51.42;99452.00;5034525;28;45377;-75
2021/07/06 06:21:00;;;;;;;;;0.25;0.00;;;;;19.61;51.12;99455.63;5034203;28;46180;-80
2021/07/06 06:23:26;;;;;;;;;1.00;1.00;;;;;19.62;51.27;99446.72;5037447;28;45524;-78
2021/07/06 06:25:52;;;;;;;;;2.00;1.00;;;;;19.62;51.11;99454.66;5038995;28;45462;-79
2021/07/06 06:28:17;;;;;;;;;1.00;1.00;;;;;19.60;50.94;99463.69;5037976;28;45367;-75
2021/07/06 06:30:42;;;;;;;;;2.00;2.00;;;;;19.53;50.70;99476.56;5038241;28;46433;-79
2021/07/06 06:33:08;;;;;;;;;1.50;1.50;;;;;19.49;50.84;99462.69;5038433;28;45594;-81
2021/07/06 06:35:34;;;;;;;;;2.75;2.00;;;;;19.48;51.42;99476.06;5038026;28;53634;-79
2021/07/06 06:38:00;;;;;;;;;4.25;3.00;;;;;19.46;50.84;99475.34;5021622;28;45703;-81
2021/07/06 06:40:25;;;;;;;;;5.25;2.25;;;;;19.44;51.10;99490.50;5040312;28;46131;-80
2021/07/06 06:42:52;;;;;;;;;3.00;2.75;;;;;19.40;51.30;99476.69;5040530;28;59414;-75
2021/07/06 06:45:17;;;;;;;;;1.00;1.00;;;;;19.40;51.15;99484.63;5041272;28;45487;-75
2021/07/06 06:47:43;;;;;;;;;2.25;2.00;;;;;19.40;50.57;99481.97;5041593;28;45569;-82
2021/07/06 06:50:09;;;;;;;;;2.75;1.50;;;;;19.29;49.84;99479.31;5040582;28;45522;-80
2021/07/06 06:52:35;;;;;;;;;1.75;1.75;;;;;19.15;50.63;99487.50;5044321;28;45487;-74
2021/07/06 06:55:01;;;;;;;;;3.00;2.00;;;;;19.02;50.70;99484.13;5026934;28;45566;-72
2021/07/06 06:57:26;;;;;;;;;5.25;3.00;;;;;18.91;51.21;99498.19;5040416;28;45379;-79
2021/07/06 06:59:52;;;;;;;;;6.00;3.00;;;;;18.89;51.44;99502.75;5038208;28;50224;-79
2021/07/06 07:02:19;;;;;;;;;2.00;2.00;;;;;18.88;51.59;99501.91;5024332;28;45277;-77
2021/07/06 07:04:45;;;;;;;;;5.00;2.00;;;;;18.84;51.63;99500.44;5007624;28;45723;-75
2021/07/06 07:07:12;;;;;;;;;2.25;2.25;;;;;18.82;52.41;99498.88;5024868;28;45320;-77
2021/07/06 07:09:38;;;;;;;;;2.00;2.00;;;;;18.84;52.34;99512.81;5045950;28;45971;-80
2021/07/06 07:12:04;;;;;;;;;2.00;2.00;;;;;18.85;52.63;99506.56;5045749;28;45464;-80
2021/07/06 07:14:29;;;;;;;;;1.50;1.50;;;;;18.85;52.58;99510.06;5041113;28;45455;-79
2021/07/06 07:16:54;;;;;;;;;2.75;2.50;;;;;18.85;52.59;99514.50;5027597;28;48831;-80
2021/07/06 07:19:20;;;;;;;;;3.75;2.00;;;;;18.89;52.95;99523.91;5018930;28;47029;-72
2021/07/06 07:21:45;;;;;;;;;2.75;2.50;;;;;18.88;52.30;99522.22;5038741;28;45486;-73
2021/07/06 07:24:11;;;;;;;;;1.00;1.00;;;;;18.84;52.55;99529.53;5039903;28;45429;-79
2021/07/06 07:26:36;;;;;;;;;4.50;2.75;;;;;18.80;52.44;99529.88;5038657;28;45375;-77
2021/07/06 07:29:02;;;;;;;;;5.25;3.00;;;;;18.76;53.04;99544.31;5039489;28;47424;-77
2021/07/06 07:31:28;;;;;;;;;3.00;2.25;;;;;18.77;52.88;99541.53;5028065;28;45675;-75
2021/07/06 07:33:54;;;;;;;;;2.00;2.00;;;;;18.77;52.89;99548.63;5037285;28;45427;-73
2021/07/06 07:36:19;;;;;;;;;4.00;4.00;;;;;18.77;52.83;99546.84;5039970;28;45629;-72
2021/07/06 07:38:45;;;;;;;;;2.25;1.75;;;;;18.79;52.95;99529.03;5034457;28;45523;-74
2021/07/06 07:41:11;;;;;;;;;2.50;2.50;;;;;18.81;52.77;99548.28;5033781;28;45505;-82
2021/07/06 07:43:36;;;;;;;;;2.00;2.00;;;;;18.86;52.77;99550.56;5040069;28;45446;-77
2021/07/06 07:46:01;;;;;;;;;5.50;4.50;;;;;18.89;52.83;99543.28;5027400;28;46650;-75
2021/07/06 07:48:27;;;;;;;;;3.25;3.00;;;;;18.92;52.88;99550.97;5038870;28;48281;-80
2021/07/06 07:50:53;;;;;;;;;6.00;4.00;;;;;18.96;52.81;99543.66;5037213;28;45481;-73
2021/07/06 07:53:18;;;;;;;;;4.50;2.50;;;;;19.01;52.52;99560.00;5035526;28;45445;-75
2021/07/06 07:55:43;;;;;;;;;5.25;3.50;;;;;19.07;53.07;99559.53;5037948;28;45605;-78
2021/07/06 07:58:09;;;;;;;;;5.75;3.00;;;;;19.12;52.90;99556.56;5033314;28;46348;-76
2021/07/06 08:00:34;;;;;;;;;5.50;3.50;;;;;19.19;52.63;99565.72;5022992;28;45530;-77
2021/07/06 08:03:00;;;;;;;;;3.00;3.00;;;;;19.24;52.37;99559.09;5038508;28;45826;-72
2021/07/06 08:05:26;;;;;;;;;2.25;2.00;;;;;19.29;52.28;99560.53;5037398;28;45477;-76
2021/07/06 08:07:52;;;;;;;;;2.00;2.00;;;;;19.31;52.55;99575.38;5029390;28;46758;-73
2021/07/06 08:10:17;;;;;;;;;2.25;2.25;;;;;19.32;52.64;99573.56;5035374;28;45316;-74
2021/07/06 08:12:43;;;;;;;;;3.75;3.75;;;;;19.28;52.20;99572.09;5034539;28;46217;-72
2021/07/06 08:15:08;;;;;;;;;6.50;3.00;;;;;19.29;52.68;99579.91;5023364;28;45461;-75
2021/07/06 08:17:34;;;;;;;;;5.25;2.00;;;;;19.24;52.00;99585.56;5030833;28;46592;-74
2021/07/06 08:20:00;;;;;;;;;3.50;2.25;;;;;19.20;52.52;99592.06;5031315;28;65576;-74
2021/07/06 08:22:26;;;;;;;;;3.25;3.25;;;;;19.22;52.16;99599.88;5041375;28;45662;-73
2021/07/06 08:24:52;;;;;;;;;1.50;1.50;;;;;19.23;51.92;99594.47;5037695;28;45605;-75
2021/07/06 08:27:18;;;;;;;;;6.00;3.25;;;;;19.19;51.81;99602.78;5055768;28;46249;-77
2021/07/06 08:29:43;;;;;;;;;5.00;4.50;;;;;19.16;52.18;99603.84;5047077;28;45593;-78
2021/07/06 08:32:08;;;;;;;;;3.00;3.00;;;;;19.20;52.17;99609.75;5031215;28;45543;-73
2021/07/06 08:34:34;;;;;;;;;3.25;3.00;;;;;19.24;52.22;99619.97;5037570;28;45456;-76
2021/07/06 08:36:59;;;;;;;;;5.00;3.75;;;;;19.28;51.81;99627.69;5036096;28;46092;-76
2021/07/06 08:39:25;;;;;;;;;3.00;3.00;;;;;19.30;51.73;99617.81;5034266;28;45743;-74
2021/07/06 08:41:50;;;;;;;;;3.75;2.00;;;;;19.28;51.93;99619.75;5023057;28;45285;-77
2021/07/06 08:44:17;;;;;;;;;3.75;3.00;;;;;19.27;51.74;99624.19;5039436;28;45532;-77
2021/07/06 08:46:42;;;;;;;;;3.00;3.00;;;;;19.29;52.48;99632.03;5027004;28;47565;-74
2021/07/06 08:49:07;;;;;;;;;4.00;3.00;;;;;19.28;51.78;99625.03;5024827;28;45297;-75
2021/07/06 08:51:34;;;;;;;;;3.75;1.25;;;;;19.27;51.74;99623.34;5043282;28;49839;-82
2021/07/06 08:53:59;;;;;;;;;5.75;2.50;;;;;19.29;51.71;99632.03;5029146;28;45790;-73
2021/07/06 08:56:25;;;;;;;;;2.00;2.00;;;;;19.33;51.93;99631.69;5023705;28;45393;-81
2021/07/06 08:58:52;;;;;;;;;3.25;2.00;;;;;19.37;51.66;99630.50;5038815;28;45422;-75
2021/07/06 09:01:23;;;;;;;;;4.00;4.00;;;;;19.42;51.53;99632.78;5021590;28;45541;-77
2021/07/06 09:03:53;;;;;;;;;5.00;3.50;;;;;19.45;51.68;99637.84;5025634;28;45439;-79
2021/07/06 09:06:19;;;;;;;;;4.25;4.25;;;;;19.45;51.40;99637.84;5038627;28;45561;-73
2021/07/06 09:08:51;;;;;;;;;6.75;4.00;;;;;19.52;51.78;99655.81;5036705;28;45560;-73
2021/07/06 09:11:17;;;;;;;;;4.00;2.00;;;;;19.59;51.65;99647.41;5037389;28;45438;-76
2021/07/06 09:13:43;;;;;;;;;2.25;2.25;;;;;19.65;50.96;99641.66;5035723;28;45339;-78
2021/07/06 09:16:08;;;;;;;;;4.50;3.00;;;;;19.65;50.81;99645.13;5017514;28;45525;-76
2021/07/06 09:18:34;;;;;;;;;4.00;3.00;;;;;19.62;50.82;99660.44;5037188;28;57220;-73
2021/07/06 09:21:12;;;;;;;;;4.00;2.00;;;;;19.58;50.51;99658.97;5034465;28;45522;-73
2021/07/06 09:23:41;;;;;;;;;4.00;3.00;;;;;19.58;51.11;99649.22;5038466;28;45449;-73
2021/07/06 09:26:17;;;;;;;;;4.75;3.00;;;;;19.75;50.53;99658.53;5027283;28;45577;-72
2021/07/06 09:28:47;;;;;;;;;1.75;1.25;;;;;19.89;50.59;99650.34;5038613;28;45448;-74
2021/07/06 09:31:16;;;;;;;;;3.75;3.75;;;;;20.08;49.80;99649.72;5036728;28;45315;-76
2021/07/06 09:33:58;;;;;;;;;4.25;3.00;;;;;20.25;49.78;99649.25;5037371;28;45276;-72
2021/07/06 09:36:47;;;;;;;;;2.25;2.25;;;;;20.48;49.66;99660.69;5038295;28;45485;-73
2021/07/06 09:39:18;;;;;;;;;1.50;0.25;;;;;20.79;48.86;99659.03;5026622;28;45681;-74
2021/07/06 09:42:01;;;;;;;;;4.00;2.00;;;;;20.90;48.65;99661.66;5038302;28;45556;-72
2021/07/06 09:44:29;;;;;;;;;8.00;6.75;;;;;21.03;48.58;99662.31;5035867;28;45438;-76
2021/07/06 09:46:56;;;;;;;;;5.00;4.75;;;;;21.23;47.42;99673.09;5033722;28;46458;-77
2021/07/06 09:49:23;;;;;;;;;2.75;2.75;;;;;21.46;47.93;99658.78;5034868;28;45331;-79
2021/07/06 09:51:52;;;;;;;;;2.25;1.25;;;;;21.84;47.10;99655.50;5035023;28;45459;-73
2021/07/06 09:54:25;;;;;;;;;1.00;1.00;;;;;22.29;44.89;99665.78;5033187;28;45556;-74
2021/07/06 09:56:51;;;;;;;;;1.50;1.50;;;;;22.63;45.27;99645.03;5017146;28;46901;-73
2021/07/06 09:59:17;;;;;;;;;3.75;2.00;;;;;22.98;43.60;99654.31;5022739;28;45718;-78
2021/07/06 10:01:55;;;;;;;;;1.00;1.00;;;;;23.09;43.02;99654.19;5040143;28;45319;-74
2021/07/06 10:04:23;;;;;;;;;4.00;1.00;;;;;23.08;42.36;99652.50;5035820;28;45283;-74
2021/07/06 10:06:49;;;;;;;;;1.25;1.00;;;;;22.85;42.61;99671.44;5036380;28;46617;-78
2021/07/06 10:09:14;;;;;;;;;5.00;3.00;;;;;22.68;42.21;99650.78;5036666;28;45348;-77
2021/07/06 10:11:40;;;;;;;;;1.75;1.75;;;;;22.54;42.99;99664.47;5034917;28;45443;-75
2021/07/06 10:14:05;;;;;;;;;2.00;2.00;;;;;22.44;42.53;99664.44;5035546;28;45691;-73
2021/07/06 10:16:31;;;;;;;;;0.00;0.00;;;;;22.35;43.22;99681.25;5034235;28;61717;-72
2021/07/06 10:18:57;;;;;;;;;1.25;1.25;;;;;22.30;43.05;99678.13;5037979;28;45440;-74
2021/07/06 10:21:22;;;;;;;;;1.00;1.00;;;;;22.16;42.25;99694.47;5023099;28;45440;-76
2021/07/06 10:23:49;;;;;;;;;2.00;2.00;;;;;21.99;42.60;99679.94;5041105;28;45343;-79
2021/07/06 10:26:20;;;;;;;;;2.00;2.00;;;;;22.06;42.29;99691.75;5043118;28;46633;-81
2021/07/06 10:28:50;;;;;;;;;3.00;3.00;;;;;22.05;42.54;99695.38;5044071;28;45534;-75
2021/07/06 10:31:16;;;;;;;;;1.00;1.00;;;;;22.02;43.23;99692.13;5026967;28;45419;-73
2021/07/06 10:33:43;;;;;;;;;3.75;2.00;;;;;22.27;42.99;99705.84;5038324;28;45466;-74
2021/07/06 10:36:09;;;;;;;;;1.00;1.00;;;;;22.47;42.18;99689.94;5035829;28;47275;-74
2021/07/06 10:38:39;;;;;;;;;1.50;1.50;;;;;22.44;42.24;99698.19;5037539;28;45410;-74
2021/07/06 10:41:21;;;;;;;;;3.00;1.00;;;;;22.34;42.02;99694.66;5039045;28;45593;-73
2021/07/06 10:43:47;;;;;;;;;5.75;3.00;;;;;22.25;41.90;99694.50;5037748;28;45658;-77
2021/07/06 10:46:21;;;;;;;;;1.00;1.00;;;;;22.14;42.04;99707.91;5035035;28;45624;-76
2021/07/06 10:48:47;;;;;;;;;1.50;1.50;;;;;22.00;42.26;99700.22;5035461;28;45520;-74
2021/07/06 10:51:35;;;;;;;;;3.00;1.50;;;;;21.96;42.64;99702.31;5033658;28;45342;-75
2021/07/06 10:54:07;;;;;;;;;0.25;0.25;;;;;21.94;42.87;99693.63;5051266;28;45377;-73
2021/07/06 10:56:42;;;;;;;;;3.75;2.00;;;;;21.96;42.50;99707.63;5049022;28;47894;-72
2021/07/06 10:59:30;;;;;;;;;2.00;2.00;;;;;21.93;42.93;99705.25;5032178;28;45425;-76
2021/07/06 11:01:59;;;;;;;;;2.00;2.00;;;;;21.96;43.30;99715.59;5024028;28;45407;-74
2021/07/06 11:04:36;;;;;;;;;2.50;2.00;;;;;22.23;42.52;99722.19;5048533;28;45410;-74
2021/07/06 11:07:08;;;;;;;;;3.00;2.00;;;;;22.58;42.34;99718.28;5032541;28;46513;-73
2021/07/06 11:09:34;;;;;;;;;2.50;2.50;;;;;22.61;42.38;99720.66;5035542;28;45337;-75
2021/07/06 11:12:22;;;;;;;;;1.00;1.00;;;;;23.58;41.05;99722.50;5038356;28;45497;-75
2021/07/06 11:14:50;;;;;;;;;1.00;1.00;;;;;24.47;39.97;99716.78;5038632;28;45236;-74
2021/07/06 11:17:33;;;;;;;;;1.75;1.75;;;;;25.02;38.58;99725.63;5037007;28;45443;-74
2021/07/06 11:20:01;;;;;;;;;3.00;1.00;;;;;25.15;38.55;99706.53;5038896;28;45371;-77
2021/07/06 11:22:51;;;;;;;;;2.00;1.00;;;;;25.16;37.49;99714.44;5037263;28;45398;-74
2021/07/06 11:25:19;;;;;;;;;1.75;1.00;;;;;24.88;37.01;99726.13;5039584;28;45541;-81
2021/07/06 11:27:59;;;;;;;;;2.00;2.00;;;;;24.53;37.51;99716.22;5041279;28;46201;-78
2021/07/06 11:30:25;;;;;;;;;5.50;5.50;;;;;24.22;38.19;99726.28;5039383;28;45493;-74
2021/07/06 11:33:13;;;;;;;;;0.75;0.75;;;;;23.99;38.37;99723.13;5038572;28;45505;-76